sensor_id;sensor_type;location;lat;lon;timestamp;temperature;humidity
20498;DHT22;10407;53.238;10.448;2023-03-01T00:01:13;-0.60;99.90
20498;DHT22;10407;53.238;10.448;2023-03-01T00:03:41;-0.60;99.90
20498;DHT22;10407;53.238;10.448;2023-03-01T00:06:09;-0.60;99.90
20498;DHT22;10407;53.238;10.448;2023-03-01T00:08:37;-0.50;99.90
20498;DHT22;10407;53.238;10.448;2023-03-01T00:11:12;-0.60;99.90
20498;DHT22;10407;53.238;10.448;2023-03-01T00:13:39;-0.60;99.90
20498;DHT22;10407;53.238;10.448;2023-03-01T00:16:14;-0.60;99.90
20498;DHT22;10407;53.238;10.448;2023-03-01T00:18:38;-0.60;99.90
20498;DHT22;10407;53.238;10.448;2023-03-01T00:21:06;-0.50;99.90
20498;DHT22;10407;53.238;10.448;2023-03-01T00:23:37;-0.60;99.90
20498;DHT22;10407;53.238;10.448;2023-03-01T00:26:10;-0.70;99.90
20498;DHT22;10407;53.238;10.448;2023-03-01T00:28:38;-0.70;99.90
20498;DHT22;10407;53.238;10.448;2023-03-01T00:31:11;-0.70;99.90
20498;DHT22;10407;53.238;10.448;2023-03-01T00:33:39;-0.80;99.90
20498;DHT22;10407;53.238;10.448;2023-03-01T00:36:07;-0.70;99.90
20498;DHT22;10407;53.238;10.448;2023-03-01T00:38:37;-0.60;99.90
20498;DHT22;10407;53.238;10.448;2023-03-01T00:41:07;-0.70;99.90
20498;DHT22;10407;53.238;10.448;2023-03-01T00:43:35;-0.80;99.90
20498;DHT22;10407;53.238;10.448;2023-03-01T00:46:06;-0.80;99.90
20498;DHT22;10407;53.238;10.448;2023-03-01T00:48:35;-0.80;99.90
20498;DHT22;10407;53.238;10.448;2023-03-01T00:51:20;-0.80;99.90
20498;DHT22;10407;53.238;10.448;2023-03-01T00:53:53;-0.80;99.90
20498;DHT22;10407;53.238;10.448;2023-03-01T00:56:21;-0.90;99.90
20498;DHT22;10407;53.238;10.448;2023-03-01T00:58:48;-0.90;99.90
20498;DHT22;10407;53.238;10.448;2023-03-01T01:01:22;-0.90;99.90
20498;DHT22;10407;53.238;10.448;2023-03-01T01:03:59;-0.90;99.90
20498;DHT22;10407;53.238;10.448;2023-03-01T01:06:25;-0.80;99.90
20498;DHT22;10407;53.238;10.448;2023-03-01T01:08:54;-0.80;99.90
20498;DHT22;10407;53.238;10.448;2023-03-01T01:11:24;-1.00;99.90
20498;DHT22;10407;53.238;10.448;2023-03-01T01:13:52;-1.00;99.90
20498;DHT22;10407;53.238;10.448;2023-03-01T01:16:22;-1.00;99.90
20498;DHT22;10407;53.238;10.448;2023-03-01T01:18:50;-1.00;99.90
20498;DHT22;10407;53.238;10.448;2023-03-01T01:21:20;-1.10;99.90
20498;DHT22;10407;53.238;10.448;2023-03-01T01:23:48;-1.00;99.90
20498;DHT22;10407;53.238;10.448;2023-03-01T01:26:18;-0.90;99.90
20498;DHT22;10407;53.238;10.448;2023-03-01T01:28:47;-1.00;99.90
20498;DHT22;10407;53.238;10.448;2023-03-01T01:31:15;-1.00;99.90
20498;DHT22;10407;53.238;10.448;2023-03-01T01:33:42;-1.10;99.90
20498;DHT22;10407;53.238;10.448;2023-03-01T01:36:11;-1.00;99.90
20498;DHT22;10407;53.238;10.448;2023-03-01T01:38:38;-1.00;99.90
20498;DHT22;10407;53.238;10.448;2023-03-01T01:41:07;-1.00;99.90
20498;DHT22;10407;53.238;10.448;2023-03-01T01:44:10;-0.90;99.90
20498;DHT22;10407;53.238;10.448;2023-03-01T01:46:48;-1.00;99.90
20498;DHT22;10407;53.238;10.448;2023-03-01T01:49:23;-1.20;99.90
20498;DHT22;10407;53.238;10.448;2023-03-01T01:51:49;-1.10;99.90
20498;DHT22;10407;53.238;10.448;2023-03-01T01:57:07;-1.10;99.90
20498;DHT22;10407;53.238;10.448;2023-03-01T01:59:35;-1.10;99.90
20498;DHT22;10407;53.238;10.448;2023-03-01T02:02:04;-1.20;99.90
20498;DHT22;10407;53.238;10.448;2023-03-01T02:04:32;-1.30;99.90
20498;DHT22;10407;53.238;10.448;2023-03-01T02:07:18;-1.10;99.90
20498;DHT22;10407;53.238;10.448;2023-03-01T02:09:47;-1.10;99.90
20498;DHT22;10407;53.238;10.448;2023-03-01T02:12:17;-1.40;99.90
20498;DHT22;10407;53.238;10.448;2023-03-01T02:14:46;-1.40;99.90
20498;DHT22;10407;53.238;10.448;2023-03-01T02:17:15;-1.50;99.90
20498;DHT22;10407;53.238;10.448;2023-03-01T02:22:34;-1.50;99.90
20498;DHT22;10407;53.238;10.448;2023-03-01T02:27:50;-1.30;99.90
20498;DHT22;10407;53.238;10.448;2023-03-01T02:30:19;-1.30;99.90
20498;DHT22;10407;53.238;10.448;2023-03-01T02:32:50;-1.30;99.90
20498;DHT22;10407;53.238;10.448;2023-03-01T02:35:18;-1.20;99.90
20498;DHT22;10407;53.238;10.448;2023-03-01T02:37:47;-1.20;99.90
20498;DHT22;10407;53.238;10.448;2023-03-01T02:40:17;-1.20;99.90
20498;DHT22;10407;53.238;10.448;2023-03-01T02:42:53;-1.10;99.90
20498;DHT22;10407;53.238;10.448;2023-03-01T02:45:21;-1.20;99.90
20498;DHT22;10407;53.238;10.448;2023-03-01T02:47:49;-1.20;99.90
20498;DHT22;10407;53.238;10.448;2023-03-01T02:53:14;-1.20;99.90
20498;DHT22;10407;53.238;10.448;2023-03-01T02:55:42;-1.30;99.90
20498;DHT22;10407;53.238;10.448;2023-03-01T02:58:09;-1.40;99.90
20498;DHT22;10407;53.238;10.448;2023-03-01T03:00:40;-1.30;99.90
20498;DHT22;10407;53.238;10.448;2023-03-01T03:03:13;-1.40;99.90
20498;DHT22;10407;53.238;10.448;2023-03-01T03:05:40;-1.60;99.90
20498;DHT22;10407;53.238;10.448;2023-03-01T03:08:08;-1.60;99.90
20498;DHT22;10407;53.238;10.448;2023-03-01T03:10:39;-1.70;99.90
20498;DHT22;10407;53.238;10.448;2023-03-01T03:13:12;-1.70;99.90
20498;DHT22;10407;53.238;10.448;2023-03-01T03:15:41;-1.60;99.90
20498;DHT22;10407;53.238;10.448;2023-03-01T03:18:17;-1.40;99.90
20498;DHT22;10407;53.238;10.448;2023-03-01T03:20:43;-1.50;99.90
20498;DHT22;10407;53.238;10.448;2023-03-01T03:23:12;-1.50;99.90
20498;DHT22;10407;53.238;10.448;2023-03-01T03:25:40;-1.60;99.90
20498;DHT22;10407;53.238;10.448;2023-03-01T03:28:07;-1.50;99.90
20498;DHT22;10407;53.238;10.448;2023-03-01T03:30:40;-1.50;99.90
20498;DHT22;10407;53.238;10.448;2023-03-01T03:33:10;-1.70;99.90
20498;DHT22;10407;53.238;10.448;2023-03-01T03:35:46;-1.70;99.90
20498;DHT22;10407;53.238;10.448;2023-03-01T03:38:15;-1.60;99.90
20498;DHT22;10407;53.238;10.448;2023-03-01T03:41:04;-1.60;99.90
20498;DHT22;10407;53.238;10.448;2023-03-01T03:43:35;-1.60;99.90
20498;DHT22;10407;53.238;10.448;2023-03-01T03:46:03;-1.60;99.90
20498;DHT22;10407;53.238;10.448;2023-03-01T03:48:36;-1.70;99.90
20498;DHT22;10407;53.238;10.448;2023-03-01T03:51:04;-1.80;99.90
20498;DHT22;10407;53.238;10.448;2023-03-01T03:53:32;-1.70;99.90
20498;DHT22;10407;53.238;10.448;2023-03-01T03:56:00;-1.70;99.90
20498;DHT22;10407;53.238;10.448;2023-03-01T03:58:27;-1.60;99.90
20498;DHT22;10407;53.238;10.448;2023-03-01T04:00:56;-1.70;99.90
20498;DHT22;10407;53.238;10.448;2023-03-01T04:03:25;-1.70;99.90
20498;DHT22;10407;53.238;10.448;2023-03-01T04:05:53;-1.70;99.90
20498;DHT22;10407;53.238;10.448;2023-03-01T04:08:22;-1.60;99.90
20498;DHT22;10407;53.238;10.448;2023-03-01T04:10:52;-1.60;99.90
20498;DHT22;10407;53.238;10.448;2023-03-01T04:13:22;-1.80;99.90
20498;DHT22;10407;53.238;10.448;2023-03-01T04:15:52;-1.90;99.90
20498;DHT22;10407;53.238;10.448;2023-03-01T04:18:22;-1.90;99.90
20498;DHT22;10407;53.238;10.448;2023-03-01T04:20:52;-2.00;99.90
20498;DHT22;10407;53.238;10.448;2023-03-01T04:23:21;-2.10;99.90
20498;DHT22;10407;53.238;10.448;2023-03-01T04:25:52;-2.00;99.90
20498;DHT22;10407;53.238;10.448;2023-03-01T04:28:24;-1.90;99.90
20498;DHT22;10407;53.238;10.448;2023-03-01T04:30:54;-2.00;99.90
20498;DHT22;10407;53.238;10.448;2023-03-01T04:33:23;-1.90;99.90
20498;DHT22;10407;53.238;10.448;2023-03-01T04:35:51;-1.80;99.90
20498;DHT22;10407;53.238;10.448;2023-03-01T04:38:19;-1.70;99.90
20498;DHT22;10407;53.238;10.448;2023-03-01T04:40:47;-1.70;99.90
20498;DHT22;10407;53.238;10.448;2023-03-01T04:43:15;-1.60;99.90
20498;DHT22;10407;53.238;10.448;2023-03-01T04:45:44;-1.60;99.90
20498;DHT22;10407;53.238;10.448;2023-03-01T04:48:11;-2.10;99.90
20498;DHT22;10407;53.238;10.448;2023-03-01T04:50:39;-2.00;99.90
20498;DHT22;10407;53.238;10.448;2023-03-01T04:53:06;-2.20;99.90
20498;DHT22;10407;53.238;10.448;2023-03-01T04:55:34;-2.00;99.90
20498;DHT22;10407;53.238;10.448;2023-03-01T04:58:01;-1.90;99.90
20498;DHT22;10407;53.238;10.448;2023-03-01T05:00:29;-1.90;99.90
20498;DHT22;10407;53.238;10.448;2023-03-01T05:02:59;-1.80;99.90
20498;DHT22;10407;53.238;10.448;2023-03-01T05:05:30;-1.90;99.90
20498;DHT22;10407;53.238;10.448;2023-03-01T05:07:59;-1.80;99.90
20498;DHT22;10407;53.238;10.448;2023-03-01T05:10:29;-2.00;99.90
20498;DHT22;10407;53.238;10.448;2023-03-01T05:12:58;-1.80;99.90
20498;DHT22;10407;53.238;10.448;2023-03-01T05:15:30;-1.90;99.90
20498;DHT22;10407;53.238;10.448;2023-03-01T05:17:59;-1.90;99.90
20498;DHT22;10407;53.238;10.448;2023-03-01T05:20:28;-2.00;99.90
20498;DHT22;10407;53.238;10.448;2023-03-01T05:22:58;-1.90;99.90
20498;DHT22;10407;53.238;10.448;2023-03-01T05:25:27;-1.90;99.90
20498;DHT22;10407;53.238;10.448;2023-03-01T05:27:56;-1.70;99.90
20498;DHT22;10407;53.238;10.448;2023-03-01T05:30:24;-1.90;99.90
20498;DHT22;10407;53.238;10.448;2023-03-01T05:32:51;-1.90;99.90
20498;DHT22;10407;53.238;10.448;2023-03-01T05:35:20;-2.10;99.90
20498;DHT22;10407;53.238;10.448;2023-03-01T05:37:49;-2.00;99.90
20498;DHT22;10407;53.238;10.448;2023-03-01T05:40:20;-1.80;99.90
20498;DHT22;10407;53.238;10.448;2023-03-01T05:42:49;-1.70;99.90
20498;DHT22;10407;53.238;10.448;2023-03-01T05:45:17;-1.60;99.90
20498;DHT22;10407;53.238;10.448;2023-03-01T05:47:46;-2.00;99.90
20498;DHT22;10407;53.238;10.448;2023-03-01T05:50:17;-1.90;99.90
20498;DHT22;10407;53.238;10.448;2023-03-01T05:52:50;-1.80;99.90
20498;DHT22;10407;53.238;10.448;2023-03-01T05:55:20;-1.80;99.90
20498;DHT22;10407;53.238;10.448;2023-03-01T05:57:48;-1.80;99.90
20498;DHT22;10407;53.238;10.448;2023-03-01T06:00:18;-2.00;99.90
20498;DHT22;10407;53.238;10.448;2023-03-01T06:02:48;-1.90;99.90
20498;DHT22;10407;53.238;10.448;2023-03-01T06:05:18;-2.00;99.90
20498;DHT22;10407;53.238;10.448;2023-03-01T06:07:45;-1.90;99.90
20498;DHT22;10407;53.238;10.448;2023-03-01T06:10:14;-1.80;99.90
20498;DHT22;10407;53.238;10.448;2023-03-01T06:12:43;-1.80;99.90
20498;DHT22;10407;53.238;10.448;2023-03-01T06:15:12;-1.70;99.90
20498;DHT22;10407;53.238;10.448;2023-03-01T06:17:42;-1.60;99.90
20498;DHT22;10407;53.238;10.448;2023-03-01T06:20:18;-1.40;99.90
20498;DHT22;10407;53.238;10.448;2023-03-01T06:22:46;-1.30;99.90
20498;DHT22;10407;53.238;10.448;2023-03-01T06:25:18;-1.10;99.90
20498;DHT22;10407;53.238;10.448;2023-03-01T06:27:46;-1.10;99.90
20498;DHT22;10407;53.238;10.448;2023-03-01T06:30:17;-1.20;99.90
20498;DHT22;10407;53.238;10.448;2023-03-01T06:32:44;-1.10;99.90
20498;DHT22;10407;53.238;10.448;2023-03-01T06:35:14;-1.20;99.90
20498;DHT22;10407;53.238;10.448;2023-03-01T06:37:44;-1.20;99.90
20498;DHT22;10407;53.238;10.448;2023-03-01T06:40:12;-1.40;99.90
20498;DHT22;10407;53.238;10.448;2023-03-01T06:42:42;-1.40;99.90
20498;DHT22;10407;53.238;10.448;2023-03-01T06:45:10;-1.10;99.90
20498;DHT22;10407;53.238;10.448;2023-03-01T06:47:38;-0.80;99.90
20498;DHT22;10407;53.238;10.448;2023-03-01T06:50:08;-1.00;99.90
20498;DHT22;10407;53.238;10.448;2023-03-01T06:52:35;-0.80;99.90
20498;DHT22;10407;53.238;10.448;2023-03-01T06:55:03;-0.40;99.90
20498;DHT22;10407;53.238;10.448;2023-03-01T06:57:31;-0.30;99.90
20498;DHT22;10407;53.238;10.448;2023-03-01T06:59:58;-0.40;99.90
20498;DHT22;10407;53.238;10.448;2023-03-01T07:02:26;-0.70;99.90
20498;DHT22;10407;53.238;10.448;2023-03-01T07:04:53;-0.40;99.90
20498;DHT22;10407;53.238;10.448;2023-03-01T07:07:21;-0.10;99.90
20498;DHT22;10407;53.238;10.448;2023-03-01T07:09:49;0.10;99.90
20498;DHT22;10407;53.238;10.448;2023-03-01T07:12:17;0.10;99.90
20498;DHT22;10407;53.238;10.448;2023-03-01T07:14:44;-0.10;99.90
20498;DHT22;10407;53.238;10.448;2023-03-01T07:17:12;0.00;99.90
20498;DHT22;10407;53.238;10.448;2023-03-01T07:19:40;0.30;99.90
20498;DHT22;10407;53.238;10.448;2023-03-01T07:22:07;0.30;99.90
20498;DHT22;10407;53.238;10.448;2023-03-01T07:24:35;0.00;99.90
20498;DHT22;10407;53.238;10.448;2023-03-01T07:27:03;0.30;99.90
20498;DHT22;10407;53.238;10.448;2023-03-01T07:29:30;0.50;99.90
20498;DHT22;10407;53.238;10.448;2023-03-01T07:31:58;0.10;99.90
20498;DHT22;10407;53.238;10.448;2023-03-01T07:34:25;0.00;99.90
20498;DHT22;10407;53.238;10.448;2023-03-01T07:36:53;-0.20;99.90
20498;DHT22;10407;53.238;10.448;2023-03-01T07:39:20;0.40;99.90
20498;DHT22;10407;53.238;10.448;2023-03-01T07:41:50;0.80;99.90
20498;DHT22;10407;53.238;10.448;2023-03-01T07:44:17;1.00;99.90
20498;DHT22;10407;53.238;10.448;2023-03-01T07:46:45;0.50;99.90
20498;DHT22;10407;53.238;10.448;2023-03-01T07:49:12;0.60;99.90
20498;DHT22;10407;53.238;10.448;2023-03-01T07:51:40;1.00;99.90
20498;DHT22;10407;53.238;10.448;2023-03-01T07:54:08;1.30;99.90
20498;DHT22;10407;53.238;10.448;2023-03-01T07:56:36;1.50;99.90
20498;DHT22;10407;53.238;10.448;2023-03-01T07:59:03;1.70;99.90
20498;DHT22;10407;53.238;10.448;2023-03-01T08:01:31;2.00;99.90
20498;DHT22;10407;53.238;10.448;2023-03-01T08:03:58;2.00;99.90
20498;DHT22;10407;53.238;10.448;2023-03-01T08:06:26;2.30;99.90
20498;DHT22;10407;53.238;10.448;2023-03-01T08:08:54;2.40;99.90
20498;DHT22;10407;53.238;10.448;2023-03-01T08:11:23;2.30;99.90
20498;DHT22;10407;53.238;10.448;2023-03-01T08:13:50;2.40;99.90
20498;DHT22;10407;53.238;10.448;2023-03-01T08:16:18;2.70;99.90
20498;DHT22;10407;53.238;10.448;2023-03-01T08:18:45;2.50;99.90
20498;DHT22;10407;53.238;10.448;2023-03-01T08:21:16;2.60;99.90
20498;DHT22;10407;53.238;10.448;2023-03-01T08:23:44;2.30;99.90
20498;DHT22;10407;53.238;10.448;2023-03-01T08:26:14;2.10;99.90
20498;DHT22;10407;53.238;10.448;2023-03-01T08:28:43;2.60;99.90
20498;DHT22;10407;53.238;10.448;2023-03-01T08:31:16;2.70;99.90
20498;DHT22;10407;53.238;10.448;2023-03-01T08:33:44;3.00;99.90
20498;DHT22;10407;53.238;10.448;2023-03-01T08:36:14;2.90;99.90
20498;DHT22;10407;53.238;10.448;2023-03-01T08:38:42;2.80;99.90
20498;DHT22;10407;53.238;10.448;2023-03-01T08:41:10;2.90;99.90
20498;DHT22;10407;53.238;10.448;2023-03-01T08:43:37;3.00;99.90
20498;DHT22;10407;53.238;10.448;2023-03-01T08:46:05;3.00;99.90
20498;DHT22;10407;53.238;10.448;2023-03-01T08:48:32;3.60;99.90
20498;DHT22;10407;53.238;10.448;2023-03-01T08:51:13;4.20;99.90
20498;DHT22;10407;53.238;10.448;2023-03-01T08:53:36;4.40;99.90
20498;DHT22;10407;53.238;10.448;2023-03-01T08:56:04;4.70;99.90
20498;DHT22;10407;53.238;10.448;2023-03-01T08:58:32;5.20;99.90
20498;DHT22;10407;53.238;10.448;2023-03-01T09:00:59;5.30;99.90
20498;DHT22;10407;53.238;10.448;2023-03-01T09:03:28;5.30;99.90
20498;DHT22;10407;53.238;10.448;2023-03-01T09:06:03;5.90;99.90
20498;DHT22;10407;53.238;10.448;2023-03-01T09:08:26;6.20;99.90
20498;DHT22;10407;53.238;10.448;2023-03-01T09:10:53;6.80;99.90
20498;DHT22;10407;53.238;10.448;2023-03-01T09:13:21;7.20;99.90
20498;DHT22;10407;53.238;10.448;2023-03-01T09:15:51;7.40;99.90
20498;DHT22;10407;53.238;10.448;2023-03-01T09:18:19;7.60;99.90
20498;DHT22;10407;53.238;10.448;2023-03-01T09:20:46;7.90;99.90
20498;DHT22;10407;53.238;10.448;2023-03-01T09:23:14;8.00;99.90
20498;DHT22;10407;53.238;10.448;2023-03-01T09:25:41;8.10;99.90
20498;DHT22;10407;53.238;10.448;2023-03-01T09:28:09;8.20;99.90
20498;DHT22;10407;53.238;10.448;2023-03-01T09:30:37;8.30;99.90
20498;DHT22;10407;53.238;10.448;2023-03-01T09:33:04;8.20;99.90
20498;DHT22;10407;53.238;10.448;2023-03-01T09:35:32;8.30;99.90
20498;DHT22;10407;53.238;10.448;2023-03-01T09:37:59;8.40;99.90
20498;DHT22;10407;53.238;10.448;2023-03-01T09:40:28;8.60;99.90
20498;DHT22;10407;53.238;10.448;2023-03-01T09:43:11;8.70;99.90
20498;DHT22;10407;53.238;10.448;2023-03-01T09:45:38;8.60;99.90
20498;DHT22;10407;53.238;10.448;2023-03-01T09:48:11;8.60;99.90
20498;DHT22;10407;53.238;10.448;2023-03-01T09:50:39;8.60;99.90
20498;DHT22;10407;53.238;10.448;2023-03-01T09:55:59;8.20;99.90
20498;DHT22;10407;53.238;10.448;2023-03-01T09:58:59;8.40;99.90
20498;DHT22;10407;53.238;10.448;2023-03-01T10:01:34;8.50;99.90
20498;DHT22;10407;53.238;10.448;2023-03-01T10:07:05;8.70;99.90
20498;DHT22;10407;53.238;10.448;2023-03-01T10:09:33;8.60;99.90
20498;DHT22;10407;53.238;10.448;2023-03-01T10:12:02;9.00;99.90
20498;DHT22;10407;53.238;10.448;2023-03-01T10:14:51;9.30;99.90
20498;DHT22;10407;53.238;10.448;2023-03-01T10:17:37;9.30;99.90
20498;DHT22;10407;53.238;10.448;2023-03-01T10:20:37;9.30;99.90
20498;DHT22;10407;53.238;10.448;2023-03-01T10:23:02;8.80;99.90
20498;DHT22;10407;53.238;10.448;2023-03-01T10:25:41;7.70;99.90
20498;DHT22;10407;53.238;10.448;2023-03-01T10:28:25;8.00;99.90
20498;DHT22;10407;53.238;10.448;2023-03-01T10:30:47;7.60;99.90
20498;DHT22;10407;53.238;10.448;2023-03-01T10:35:52;7.70;99.90
20498;DHT22;10407;53.238;10.448;2023-03-01T10:38:20;7.90;99.90
20498;DHT22;10407;53.238;10.448;2023-03-01T10:41:05;7.10;99.90
20498;DHT22;10407;53.238;10.448;2023-03-01T10:43:48;7.30;99.90
20498;DHT22;10407;53.238;10.448;2023-03-01T10:46:28;8.50;99.90
20498;DHT22;10407;53.238;10.448;2023-03-01T10:49:21;8.80;99.90
20498;DHT22;10407;53.238;10.448;2023-03-01T10:51:51;9.30;99.90
20498;DHT22;10407;53.238;10.448;2023-03-01T10:54:32;9.40;99.90
20498;DHT22;10407;53.238;10.448;2023-03-01T10:57:01;9.40;99.90
20498;DHT22;10407;53.238;10.448;2023-03-01T10:59:34;9.30;99.90
20498;DHT22;10407;53.238;10.448;2023-03-01T11:04:39;7.80;99.90
20498;DHT22;10407;53.238;10.448;2023-03-01T11:07:08;7.50;99.90
20498;DHT22;10407;53.238;10.448;2023-03-01T11:09:36;7.60;99.90
20498;DHT22;10407;53.238;10.448;2023-03-01T11:12:13;8.00;99.90
20498;DHT22;10407;53.238;10.448;2023-03-01T11:14:38;8.30;99.90
20498;DHT22;10407;53.238;10.448;2023-03-01T11:22:56;7.40;99.90
20498;DHT22;10407;53.238;10.448;2023-03-01T11:25:27;7.70;99.90
20498;DHT22;10407;53.238;10.448;2023-03-01T11:27:53;8.20;99.90
20498;DHT22;10407;53.238;10.448;2023-03-01T11:33:16;8.70;99.90
20498;DHT22;10407;53.238;10.448;2023-03-01T11:35:45;8.90;99.90
20498;DHT22;10407;53.238;10.448;2023-03-01T11:38:22;8.30;99.90
20498;DHT22;10407;53.238;10.448;2023-03-01T11:41:34;8.40;99.90
20498;DHT22;10407;53.238;10.448;2023-03-01T11:43:47;8.50;99.90
20498;DHT22;10407;53.238;10.448;2023-03-01T11:46:40;8.20;99.90
20498;DHT22;10407;53.238;10.448;2023-03-01T11:49:18;8.40;99.90
20498;DHT22;10407;53.238;10.448;2023-03-01T11:51:56;8.60;99.90
20498;DHT22;10407;53.238;10.448;2023-03-01T11:55:29;8.60;99.90
20498;DHT22;10407;53.238;10.448;2023-03-01T12:02:45;8.70;99.90
20498;DHT22;10407;53.238;10.448;2023-03-01T12:05:24;8.10;99.90
20498;DHT22;10407;53.238;10.448;2023-03-01T12:08:00;7.70;99.90
20498;DHT22;10407;53.238;10.448;2023-03-01T12:21:11;7.70;99.90
20498;DHT22;10407;53.238;10.448;2023-03-01T12:23:45;7.90;99.90
20498;DHT22;10407;53.238;10.448;2023-03-01T12:26:16;7.60;99.90
20498;DHT22;10407;53.238;10.448;2023-03-01T12:29:00;7.80;99.90
20498;DHT22;10407;53.238;10.448;2023-03-01T12:31:39;7.30;99.90
20498;DHT22;10407;53.238;10.448;2023-03-01T12:51:01;8.20;99.90
20498;DHT22;10407;53.238;10.448;2023-03-01T12:53:36;8.30;99.90
20498;DHT22;10407;53.238;10.448;2023-03-01T12:56:06;8.20;99.90
20498;DHT22;10407;53.238;10.448;2023-03-01T12:58:55;8.10;99.90
20498;DHT22;10407;53.238;10.448;2023-03-01T13:01:44;8.20;99.90
20498;DHT22;10407;53.238;10.448;2023-03-01T13:07:15;8.10;99.90
20498;DHT22;10407;53.238;10.448;2023-03-01T13:10:21;8.10;99.90
20498;DHT22;10407;53.238;10.448;2023-03-01T13:13:00;8.20;99.90
20498;DHT22;10407;53.238;10.448;2023-03-01T13:18:04;8.20;99.90
20498;DHT22;10407;53.238;10.448;2023-03-01T13:20:55;8.10;99.90
20498;DHT22;10407;53.238;10.448;2023-03-01T13:23:08;8.40;99.90
20498;DHT22;10407;53.238;10.448;2023-03-01T13:33:56;8.10;99.90
20498;DHT22;10407;53.238;10.448;2023-03-01T13:39:40;8.20;99.90
20498;DHT22;10407;53.238;10.448;2023-03-01T13:44:24;8.30;99.90
20498;DHT22;10407;53.238;10.448;2023-03-01T13:49:53;8.10;99.90
20498;DHT22;10407;53.238;10.448;2023-03-01T13:52:36;8.20;99.90
20498;DHT22;10407;53.238;10.448;2023-03-01T13:55:06;8.20;99.90
20498;DHT22;10407;53.238;10.448;2023-03-01T13:57:37;8.20;99.90
20498;DHT22;10407;53.238;10.448;2023-03-01T14:00:06;8.30;99.90
20498;DHT22;10407;53.238;10.448;2023-03-01T14:02:34;8.10;99.90
20498;DHT22;10407;53.238;10.448;2023-03-01T14:05:03;8.00;99.90
20498;DHT22;10407;53.238;10.448;2023-03-01T14:07:31;7.80;99.90
20498;DHT22;10407;53.238;10.448;2023-03-01T14:10:01;8.00;99.90
20498;DHT22;10407;53.238;10.448;2023-03-01T14:12:48;7.80;99.90
20498;DHT22;10407;53.238;10.448;2023-03-01T14:15:35;7.90;99.90
20498;DHT22;10407;53.238;10.448;2023-03-01T14:20:45;8.10;99.90
20498;DHT22;10407;53.238;10.448;2023-03-01T14:23:22;8.00;99.90
20498;DHT22;10407;53.238;10.448;2023-03-01T14:25:57;8.10;99.90
20498;DHT22;10407;53.238;10.448;2023-03-01T14:28:24;8.10;99.90
20498;DHT22;10407;53.238;10.448;2023-03-01T14:30:56;8.20;99.90
20498;DHT22;10407;53.238;10.448;2023-03-01T14:36:09;7.90;99.90
20498;DHT22;10407;53.238;10.448;2023-03-01T14:38:44;7.90;99.90
20498;DHT22;10407;53.238;10.448;2023-03-01T14:41:14;8.10;99.90
20498;DHT22;10407;53.238;10.448;2023-03-01T14:43:50;8.10;99.90
20498;DHT22;10407;53.238;10.448;2023-03-01T14:46:24;8.10;99.90
20498;DHT22;10407;53.238;10.448;2023-03-01T14:48:57;7.90;99.90
20498;DHT22;10407;53.238;10.448;2023-03-01T14:51:21;7.90;99.90
20498;DHT22;10407;53.238;10.448;2023-03-01T14:53:49;8.10;99.90
20498;DHT22;10407;53.238;10.448;2023-03-01T14:56:18;8.10;99.90
20498;DHT22;10407;53.238;10.448;2023-03-01T14:58:46;8.00;99.90
20498;DHT22;10407;53.238;10.448;2023-03-01T15:01:15;8.00;99.90
20498;DHT22;10407;53.238;10.448;2023-03-01T15:03:46;8.00;99.90
20498;DHT22;10407;53.238;10.448;2023-03-01T15:06:22;7.80;99.90
20498;DHT22;10407;53.238;10.448;2023-03-01T15:08:52;7.90;99.90
20498;DHT22;10407;53.238;10.448;2023-03-01T15:11:33;7.80;99.90
20498;DHT22;10407;53.238;10.448;2023-03-01T15:13:57;7.80;99.90
20498;DHT22;10407;53.238;10.448;2023-03-01T15:16:29;7.70;99.90
20498;DHT22;10407;53.238;10.448;2023-03-01T15:18:58;7.90;99.90
20498;DHT22;10407;53.238;10.448;2023-03-01T15:21:32;8.00;99.90
20498;DHT22;10407;53.238;10.448;2023-03-01T15:24:13;7.90;99.90
20498;DHT22;10407;53.238;10.448;2023-03-01T15:26:43;7.90;99.90
20498;DHT22;10407;53.238;10.448;2023-03-01T15:29:18;7.90;99.90
20498;DHT22;10407;53.238;10.448;2023-03-01T15:31:58;7.80;99.90
20498;DHT22;10407;53.238;10.448;2023-03-01T15:34:34;7.80;99.90
20498;DHT22;10407;53.238;10.448;2023-03-01T15:37:00;7.80;99.90
20498;DHT22;10407;53.238;10.448;2023-03-01T15:39:40;7.80;99.90
20498;DHT22;10407;53.238;10.448;2023-03-01T15:47:52;7.80;99.90
20498;DHT22;10407;53.238;10.448;2023-03-01T15:50:27;7.60;99.90
20498;DHT22;10407;53.238;10.448;2023-03-01T15:52:51;7.60;99.90
20498;DHT22;10407;53.238;10.448;2023-03-01T15:57:50;7.50;99.90
20498;DHT22;10407;53.238;10.448;2023-03-01T16:00:19;7.50;99.90
20498;DHT22;10407;53.238;10.448;2023-03-01T16:02:47;7.60;99.90
20498;DHT22;10407;53.238;10.448;2023-03-01T16:05:17;7.60;99.90
20498;DHT22;10407;53.238;10.448;2023-03-01T16:07:45;7.60;99.90
20498;DHT22;10407;53.238;10.448;2023-03-01T16:10:12;7.50;99.90
20498;DHT22;10407;53.238;10.448;2023-03-01T16:12:40;7.50;99.90
20498;DHT22;10407;53.238;10.448;2023-03-01T16:15:16;7.40;99.90
20498;DHT22;10407;53.238;10.448;2023-03-01T16:17:44;7.40;99.90
20498;DHT22;10407;53.238;10.448;2023-03-01T16:20:13;7.40;99.90
20498;DHT22;10407;53.238;10.448;2023-03-01T16:22:45;7.30;99.90
20498;DHT22;10407;53.238;10.448;2023-03-01T16:25:15;7.20;99.90
20498;DHT22;10407;53.238;10.448;2023-03-01T16:27:44;7.20;99.90
20498;DHT22;10407;53.238;10.448;2023-03-01T16:30:17;7.20;99.90
20498;DHT22;10407;53.238;10.448;2023-03-01T16:32:43;7.10;99.90
20498;DHT22;10407;53.238;10.448;2023-03-01T16:35:14;7.10;99.90
20498;DHT22;10407;53.238;10.448;2023-03-01T16:37:42;7.00;99.90
20498;DHT22;10407;53.238;10.448;2023-03-01T16:40:27;6.90;99.90
20498;DHT22;10407;53.238;10.448;2023-03-01T16:42:56;6.90;99.90
20498;DHT22;10407;53.238;10.448;2023-03-01T16:45:29;6.80;99.90
20498;DHT22;10407;53.238;10.448;2023-03-01T16:47:56;6.60;99.90
20498;DHT22;10407;53.238;10.448;2023-03-01T16:50:24;6.50;99.90
20498;DHT22;10407;53.238;10.448;2023-03-01T16:52:51;6.50;99.90
20498;DHT22;10407;53.238;10.448;2023-03-01T16:55:19;6.40;99.90
20498;DHT22;10407;53.238;10.448;2023-03-01T16:57:46;6.30;99.90
20498;DHT22;10407;53.238;10.448;2023-03-01T17:00:14;6.10;99.90
20498;DHT22;10407;53.238;10.448;2023-03-01T17:02:42;6.00;99.90
20498;DHT22;10407;53.238;10.448;2023-03-01T17:05:10;5.90;99.90
20498;DHT22;10407;53.238;10.448;2023-03-01T17:07:38;5.90;99.90
20498;DHT22;10407;53.238;10.448;2023-03-01T17:10:08;5.80;99.90
20498;DHT22;10407;53.238;10.448;2023-03-01T17:12:37;5.80;99.90
20498;DHT22;10407;53.238;10.448;2023-03-01T17:15:06;5.70;99.90
20498;DHT22;10407;53.238;10.448;2023-03-01T17:17:33;5.70;99.90
20498;DHT22;10407;53.238;10.448;2023-03-01T17:20:01;5.60;99.90
20498;DHT22;10407;53.238;10.448;2023-03-01T17:22:29;5.50;99.90
20498;DHT22;10407;53.238;10.448;2023-03-01T17:24:56;5.50;99.90
20498;DHT22;10407;53.238;10.448;2023-03-01T17:27:24;5.40;99.90